createdAt,value
2022-10-19T04:02:06.329Z,100889.06
2022-10-19T04:05:08.890Z,100894.97
2022-10-19T04:08:10.978Z,100887.28
2022-10-19T04:11:14.769Z,100883.78
2022-10-19T04:14:26.941Z,100888.34
2022-10-19T04:17:35.615Z,100885.88
2022-10-19T04:20:41.993Z,100874.75
2022-10-19T04:23:44.318Z,100888.59
2022-10-19T04:26:48.762Z,100888.09
2022-10-19T04:29:51.057Z,100903.81
2022-10-19T04:32:53.090Z,100890.97
2022-10-19T04:36:03.053Z,100888.47
2022-10-19T04:39:06.409Z,100897.16
2022-10-19T04:42:08.721Z,100890.91
2022-10-19T04:45:10.812Z,100885.78
2022-10-19T04:48:15.092Z,100896.16
2022-10-19T04:51:18.166Z,100894.44
2022-10-19T04:54:20.517Z,100885.84
2022-10-19T04:57:22.542Z,100890.25
2022-10-19T05:00:24.841Z,100890.41
2022-10-19T05:03:27.136Z,100892.06
2022-10-19T05:06:31.255Z,100891.84
2022-10-19T05:09:33.301Z,100887.47
2022-10-19T05:12:36.220Z,100881.37
2022-10-19T05:15:38.257Z,100886.53
2022-10-19T05:18:41.765Z,100889.13
2022-10-19T05:21:43.778Z,100902.97
2022-10-19T05:24:46.069Z,100909.03
2022-10-19T05:27:52.481Z,100898.47
2022-10-19T05:30:54.902Z,100912.47
2022-10-19T05:33:58.089Z,100921.75
2022-10-19T05:37:00.993Z,100906.12
2022-10-19T05:40:03.110Z,100908.72
2022-10-19T05:43:05.411Z,100913.88
2022-10-19T05:46:10.368Z,100917.38
2022-10-19T05:49:14.469Z,100914.91
2022-10-19T05:52:17.689Z,100916.88
2022-10-19T05:55:20.017Z,100918.19
2022-10-19T05:58:22.143Z,100915.78
2022-10-19T06:01:25.752Z,100915.37
2022-10-19T06:04:28.059Z,100925.47
2022-10-19T06:07:30.110Z,100928.66
2022-10-19T06:10:32.484Z,100931.91
2022-10-19T06:13:34.946Z,100923.41
2022-10-19T06:16:37.914Z,100929.78
2022-10-19T06:19:39.934Z,100928.97
2022-10-19T06:22:42.722Z,100936.81
2022-10-19T06:25:44.773Z,100934.25
2022-10-19T06:28:48.690Z,100937.00
2022-10-19T06:31:52.008Z,100937.09
2022-10-19T06:34:56.631Z,100940.62
2022-10-19T06:37:58.822Z,100945.06
2022-10-19T06:41:01.213Z,100951.25
2022-10-19T06:44:03.278Z,100950.41
2022-10-19T06:47:05.566Z,100964.53
2022-10-19T06:50:08.449Z,100967.12
2022-10-19T06:53:11.234Z,100968.94
2022-10-19T06:56:13.612Z,100976.81
2022-10-19T06:59:17.545Z,100985.56
2022-10-19T07:02:20.222Z,100982.87
2022-10-19T07:05:22.764Z,100989.22
2022-10-19T07:08:26.274Z,100986.69
2022-10-19T07:11:28.793Z,100991.09
2022-10-19T07:14:31.485Z,100996.37
2022-10-19T07:17:34.992Z,101000.81
2022-10-19T07:20:37.244Z,101002.66
2022-10-19T07:23:41.508Z,101006.25
2022-10-19T07:26:43.876Z,101016.00
2022-10-19T07:29:46.251Z,101020.44
2022-10-19T07:32:48.344Z,101017.94
2022-10-19T07:35:50.613Z,101024.09
2022-10-19T07:38:52.900Z,101024.16
2022-10-19T07:41:55.218Z,101026.81
2022-10-19T07:44:57.419Z,101027.72
2022-10-19T07:48:00.134Z,101031.25
2022-10-19T07:51:04.986Z,101029.50
2022-10-19T07:54:07.861Z,101026.87
2022-10-19T07:57:12.144Z,101027.75
2022-10-19T08:00:24.526Z,101020.72
2022-10-19T08:06:49.814Z,101006.66
2022-10-19T08:09:53.892Z,101008.44
2022-10-19T08:12:56.392Z,101006.66
2022-10-19T08:15:58.686Z,101006.66
2022-10-19T08:19:03.931Z,101008.44
2022-10-19T08:22:06.236Z,101011.94
2022-10-19T08:25:08.437Z,101013.69
2022-10-19T08:28:10.722Z,101011.97
2022-10-19T08:31:17.113Z,101010.16
2022-10-19T08:34:19.418Z,101018.94
2022-10-19T08:37:40.207Z,101012.81
2022-10-19T08:40:45.213Z,101004.03
2022-10-19T08:44:05.047Z,101019.84
2022-10-19T08:47:39.447Z,101016.28
2022-10-19T08:50:44.647Z,101015.38
2022-10-19T08:53:57.364Z,101010.97
2022-10-19T08:57:17.137Z,101017.13
2022-10-19T09:00:28.274Z,101018.03
2022-10-19T09:03:57.727Z,101017.13
2022-10-19T09:07:10.705Z,101020.63
2022-10-19T09:10:21.068Z,101020.69
2022-10-19T09:14:03.806Z,101014.47
2022-10-19T09:17:12.255Z,101015.31
2022-10-19T09:20:21.272Z,101019.72
2022-10-19T09:23:34.914Z,101017.94
2022-10-19T09:26:49.518Z,101015.31
2022-10-19T09:29:57.903Z,101019.59
2022-10-19T09:33:02.483Z,101015.22
2022-10-19T09:36:06.816Z,101016.03
2022-10-19T09:39:15.289Z,101024.78
2022-10-19T09:42:32.984Z,101016.72
2022-10-19T09:45:53.401Z,101014.88
2022-10-19T09:48:55.424Z,101013.88
2022-10-19T09:51:57.714Z,101024.34
2022-10-19T09:55:04.250Z,101015.34
2022-10-19T09:58:18.329Z,101013.69
2022-10-19T10:01:43.059Z,101013.06
2022-10-19T10:05:03.048Z,101007.69
2022-10-19T10:08:14.102Z,101000.47
2022-10-19T10:11:23.137Z,100993.19
2022-10-19T10:14:34.906Z,100998.97
2022-10-19T10:17:38.380Z,100989.91
2022-10-19T10:28:21.791Z,100983.44
2022-10-19T10:31:27.656Z,100982.84
2022-10-19T10:35:04.343Z,100972.28
2022-10-19T10:38:13.298Z,100977.78
2022-10-19T10:41:23.203Z,100965.59
2022-10-19T10:44:30.742Z,100964.78
2022-10-19T10:47:33.380Z,100957.72
2022-10-19T10:50:36.798Z,100962.13
2022-10-19T10:53:43.250Z,100948.78
2022-10-19T10:57:04.322Z,100953.16
2022-10-19T11:00:14.209Z,100946.91
2022-10-19T11:03:24.542Z,100946.88
2022-10-19T11:06:26.984Z,100936.25
2022-10-19T11:09:41.628Z,100937.03
2022-10-19T11:12:49.633Z,100926.56
2022-10-19T11:16:10.795Z,100923.12
2022-10-19T11:19:22.320Z,100925.59
2022-10-19T11:22:37.690Z,100919.22
2022-10-19T11:26:03.872Z,100925.25
2022-10-19T11:29:25.046Z,100922.53
2022-10-19T11:33:02.941Z,100916.50
2022-10-19T11:36:21.997Z,100920.16
2022-10-19T11:39:39.169Z,100913.22
2022-10-19T11:42:53.348Z,100916.72
2022-10-19T11:46:34.870Z,100912.41
2022-10-19T11:53:16.272Z,100917.81
2022-10-19T11:56:39.241Z,100910.69
2022-10-19T11:59:53.423Z,100901.63
2022-10-19T12:03:13.964Z,100915.72
2022-10-19T12:06:21.926Z,100907.53
2022-10-19T12:09:29.773Z,100896.12
2022-10-19T12:12:39.081Z,100899.03
2022-10-19T12:15:46.725Z,100900.00
2022-10-19T12:18:58.407Z,100903.62
2022-10-19T12:22:04.011Z,100898.37
2022-10-19T12:25:06.917Z,100901.09
2022-10-19T12:28:16.316Z,100894.91
2022-10-19T12:31:18.858Z,100887.91
2022-10-19T12:34:33.959Z,100883.53
2022-10-19T12:37:44.748Z,100882.59
2022-10-19T12:40:55.886Z,100877.31
2022-10-19T12:44:16.528Z,100876.38
2022-10-19T12:47:21.719Z,100862.25
2022-10-19T12:51:04.187Z,100866.72
2022-10-19T12:54:09.445Z,100874.78
2022-10-19T12:57:28.770Z,100870.34
2022-10-19T13:00:36.836Z,100861.50
2022-10-19T13:03:42.436Z,100859.78
2022-10-19T13:06:59.470Z,100857.94
2022-10-19T13:10:07.100Z,100845.56
2022-10-19T13:13:28.944Z,100847.34
2022-10-19T13:16:31.105Z,100848.25
2022-10-19T13:19:33.202Z,100843.03
2022-10-19T13:22:35.751Z,100830.66
2022-10-19T13:25:39.173Z,100853.63
2022-10-19T13:28:57.435Z,100848.34
2022-10-19T13:32:32.887Z,100846.53
2022-10-19T13:35:35.882Z,100843.06
2022-10-19T13:38:40.870Z,100870.38
2022-10-19T13:41:49.017Z,100859.91
2022-10-19T13:44:52.946Z,100854.53
2022-10-19T13:48:05.669Z,100873.16
2022-10-19T13:51:23.934Z,100861.66
2022-10-19T13:54:47.750Z,100857.25
2022-10-19T13:58:26.911Z,100861.66
2022-10-19T14:01:47.391Z,100873.16
2022-10-19T14:05:27.598Z,100860.00
2022-10-19T14:08:59.914Z,100860.03
2022-10-19T14:12:17.412Z,100866.25
2022-10-19T14:15:25.732Z,100856.56
2022-10-19T14:18:33.623Z,100866.31
2022-10-19T14:21:36.949Z,100866.34
2022-10-19T14:24:39.267Z,100868.13
2022-10-19T14:27:41.875Z,100871.69
2022-10-19T14:30:44.519Z,100865.56
2022-10-19T14:33:50.306Z,100870.03
2022-10-19T14:36:52.698Z,100874.44
2022-10-19T14:40:26.625Z,100878.03
2022-10-19T14:43:32.596Z,100872.78
2022-10-19T14:46:34.698Z,100875.44
2022-10-19T14:49:37.033Z,100863.13
2022-10-19T14:52:40.471Z,100872.84
2022-10-19T14:55:43.573Z,100869.31
2022-10-19T14:58:49.955Z,100857.03
2022-10-19T15:01:56.600Z,100863.19
2022-10-19T15:05:01.406Z,100873.78
2022-10-19T15:08:42.473Z,100866.75
2022-10-19T15:11:52.342Z,100865.91
2022-10-19T15:14:54.986Z,100864.13
2022-10-19T15:18:04.723Z,100867.66
2022-10-19T15:21:18.197Z,100868.56
2022-10-19T15:24:27.401Z,100878.22
2022-10-19T15:27:32.874Z,100880.91
2022-10-19T15:30:34.946Z,100875.62
2022-10-19T15:33:40.214Z,100865.94
2022-10-19T15:36:54.554Z,100873.84
2022-10-19T15:39:56.850Z,100880.00
